sensor_id;sensor_type;location;lat;lon;timestamp;P1;durP1;ratioP1;P2;durP2;ratioP2
11241;SDS011;5678;52.370;9.006;2022-12-18T00:01:28;1.17;;;1.17;;
11241;SDS011;5678;52.370;9.006;2022-12-18T00:03:59;1.23;;;1.23;;
11241;SDS011;5678;52.370;9.006;2022-12-18T00:06:29;1.27;;;1.27;;
11241;SDS011;5678;52.370;9.006;2022-12-18T00:08:57;1.30;;;1.30;;
11241;SDS011;5678;52.370;9.006;2022-12-18T00:11:26;0.90;;;0.90;;
11241;SDS011;5678;52.370;9.006;2022-12-18T00:13:58;1.00;;;1.00;;
11241;SDS011;5678;52.370;9.006;2022-12-18T00:16:27;0.98;;;0.98;;
11241;SDS011;5678;52.370;9.006;2022-12-18T00:18:59;1.20;;;1.20;;
11241;SDS011;5678;52.370;9.006;2022-12-18T00:21:28;0.98;;;0.98;;
11241;SDS011;5678;52.370;9.006;2022-12-18T00:23:57;1.10;;;1.10;;
11241;SDS011;5678;52.370;9.006;2022-12-18T00:26:27;1.63;;;1.63;;
11241;SDS011;5678;52.370;9.006;2022-12-18T00:29:16;1.00;;;1.00;;
11241;SDS011;5678;52.370;9.006;2022-12-18T00:31:45;1.38;;;1.38;;
11241;SDS011;5678;52.370;9.006;2022-12-18T00:34:13;1.27;;;1.27;;
11241;SDS011;5678;52.370;9.006;2022-12-18T00:36:41;1.20;;;1.20;;
11241;SDS011;5678;52.370;9.006;2022-12-18T00:39:09;1.00;;;1.00;;
11241;SDS011;5678;52.370;9.006;2022-12-18T00:41:38;1.30;;;1.30;;
11241;SDS011;5678;52.370;9.006;2022-12-18T00:44:25;1.20;;;1.20;;
11241;SDS011;5678;52.370;9.006;2022-12-18T00:46:53;1.17;;;1.17;;
11241;SDS011;5678;52.370;9.006;2022-12-18T00:49:20;1.10;;;1.10;;
11241;SDS011;5678;52.370;9.006;2022-12-18T00:51:48;1.20;;;1.20;;
11241;SDS011;5678;52.370;9.006;2022-12-18T00:54:17;1.20;;;1.20;;
11241;SDS011;5678;52.370;9.006;2022-12-18T00:56:45;1.10;;;1.10;;
11241;SDS011;5678;52.370;9.006;2022-12-18T00:59:15;1.00;;;1.00;;
11241;SDS011;5678;52.370;9.006;2022-12-18T01:01:45;1.20;;;1.20;;
11241;SDS011;5678;52.370;9.006;2022-12-18T01:04:13;1.20;;;1.20;;
11241;SDS011;5678;52.370;9.006;2022-12-18T01:06:41;1.27;;;1.27;;
11241;SDS011;5678;52.370;9.006;2022-12-18T01:09:09;1.10;;;1.10;;
11241;SDS011;5678;52.370;9.006;2022-12-18T01:11:37;1.02;;;1.02;;
11241;SDS011;5678;52.370;9.006;2022-12-18T01:14:07;1.10;;;1.10;;
11241;SDS011;5678;52.370;9.006;2022-12-18T01:16:36;1.10;;;1.10;;
11241;SDS011;5678;52.370;9.006;2022-12-18T01:19:05;1.10;;;1.10;;
11241;SDS011;5678;52.370;9.006;2022-12-18T01:21:33;1.30;;;1.30;;
11241;SDS011;5678;52.370;9.006;2022-12-18T01:24:01;1.40;;;1.40;;
11241;SDS011;5678;52.370;9.006;2022-12-18T01:26:30;1.08;;;1.08;;
11241;SDS011;5678;52.370;9.006;2022-12-18T01:28:57;1.42;;;1.42;;
11241;SDS011;5678;52.370;9.006;2022-12-18T01:31:26;1.10;;;1.10;;
11241;SDS011;5678;52.370;9.006;2022-12-18T01:33:56;1.10;;;1.10;;
11241;SDS011;5678;52.370;9.006;2022-12-18T01:36:27;1.00;;;1.00;;
11241;SDS011;5678;52.370;9.006;2022-12-18T01:38:56;1.30;;;1.30;;
11241;SDS011;5678;52.370;9.006;2022-12-18T01:41:27;1.55;;;1.55;;
11241;SDS011;5678;52.370;9.006;2022-12-18T01:47:30;1.10;;;1.10;;
11241;SDS011;5678;52.370;9.006;2022-12-18T01:50:03;1.50;;;1.50;;
11241;SDS011;5678;52.370;9.006;2022-12-18T01:52:40;1.20;;;1.20;;
11241;SDS011;5678;52.370;9.006;2022-12-18T01:55:09;1.35;;;1.35;;
11241;SDS011;5678;52.370;9.006;2022-12-18T01:57:38;1.40;;;1.40;;
11241;SDS011;5678;52.370;9.006;2022-12-18T02:00:08;1.13;;;1.13;;
11241;SDS011;5678;52.370;9.006;2022-12-18T02:02:38;1.10;;;1.10;;
11241;SDS011;5678;52.370;9.006;2022-12-18T02:05:08;1.38;;;1.38;;
11241;SDS011;5678;52.370;9.006;2022-12-18T02:07:41;1.20;;;1.20;;
11241;SDS011;5678;52.370;9.006;2022-12-18T02:10:16;1.10;;;1.10;;
11241;SDS011;5678;52.370;9.006;2022-12-18T02:12:52;1.40;;;1.40;;
11241;SDS011;5678;52.370;9.006;2022-12-18T02:15:25;1.05;;;1.05;;
11241;SDS011;5678;52.370;9.006;2022-12-18T02:18:00;1.25;;;1.25;;
11241;SDS011;5678;52.370;9.006;2022-12-18T02:20:33;1.17;;;1.17;;
11241;SDS011;5678;52.370;9.006;2022-12-18T02:23:08;1.20;;;1.20;;
11241;SDS011;5678;52.370;9.006;2022-12-18T02:28:51;1.00;;;1.00;;
11241;SDS011;5678;52.370;9.006;2022-12-18T02:31:23;1.02;;;1.02;;
11241;SDS011;5678;52.370;9.006;2022-12-18T02:33:58;1.08;;;1.08;;
11241;SDS011;5678;52.370;9.006;2022-12-18T02:36:28;1.20;;;1.20;;
11241;SDS011;5678;52.370;9.006;2022-12-18T02:38:58;1.20;;;1.20;;
11241;SDS011;5678;52.370;9.006;2022-12-18T02:41:29;1.30;;;1.30;;
11241;SDS011;5678;52.370;9.006;2022-12-18T02:43:59;1.10;;;1.10;;
11241;SDS011;5678;52.370;9.006;2022-12-18T02:46:34;1.27;;;1.27;;
11241;SDS011;5678;52.370;9.006;2022-12-18T02:49:06;0.98;;;0.98;;
11241;SDS011;5678;52.370;9.006;2022-12-18T02:51:44;1.00;;;1.00;;
11241;SDS011;5678;52.370;9.006;2022-12-18T02:54:20;1.00;;;1.00;;
11241;SDS011;5678;52.370;9.006;2022-12-18T02:57:01;1.00;;;1.00;;
11241;SDS011;5678;52.370;9.006;2022-12-18T02:59:38;0.93;;;0.93;;
11241;SDS011;5678;52.370;9.006;2022-12-18T03:02:10;1.30;;;1.30;;
11241;SDS011;5678;52.370;9.006;2022-12-18T03:04:49;1.15;;;1.15;;
11241;SDS011;5678;52.370;9.006;2022-12-18T03:07:24;0.93;;;0.93;;
11241;SDS011;5678;52.370;9.006;2022-12-18T03:09:59;1.00;;;1.00;;
11241;SDS011;5678;52.370;9.006;2022-12-18T03:12:30;1.00;;;1.00;;
11241;SDS011;5678;52.370;9.006;2022-12-18T03:15:02;1.10;;;1.10;;
11241;SDS011;5678;52.370;9.006;2022-12-18T03:17:44;1.30;;;1.30;;
11241;SDS011;5678;52.370;9.006;2022-12-18T03:20:19;1.33;;;1.33;;
11241;SDS011;5678;52.370;9.006;2022-12-18T03:22:50;1.00;;;1.00;;
11241;SDS011;5678;52.370;9.006;2022-12-18T03:25:20;1.25;;;1.25;;
11241;SDS011;5678;52.370;9.006;2022-12-18T03:27:51;1.10;;;1.10;;
11241;SDS011;5678;52.370;9.006;2022-12-18T03:30:22;1.25;;;1.25;;
11241;SDS011;5678;52.370;9.006;2022-12-18T03:32:52;1.00;;;1.00;;
11241;SDS011;5678;52.370;9.006;2022-12-18T03:35:26;1.00;;;1.00;;
11241;SDS011;5678;52.370;9.006;2022-12-18T03:37:58;1.00;;;1.00;;
11241;SDS011;5678;52.370;9.006;2022-12-18T03:40:26;1.38;;;1.38;;
11241;SDS011;5678;52.370;9.006;2022-12-18T03:43:05;1.00;;;1.00;;
11241;SDS011;5678;52.370;9.006;2022-12-18T03:45:38;1.10;;;1.10;;
11241;SDS011;5678;52.370;9.006;2022-12-18T03:48:12;1.20;;;1.20;;
11241;SDS011;5678;52.370;9.006;2022-12-18T03:50:46;1.10;;;1.10;;
11241;SDS011;5678;52.370;9.006;2022-12-18T03:53:23;1.20;;;1.20;;
11241;SDS011;5678;52.370;9.006;2022-12-18T03:55:54;1.10;;;1.10;;
11241;SDS011;5678;52.370;9.006;2022-12-18T03:58:25;1.20;;;1.20;;
11241;SDS011;5678;52.370;9.006;2022-12-18T04:00:55;1.10;;;1.10;;
11241;SDS011;5678;52.370;9.006;2022-12-18T04:03:26;1.30;;;1.30;;
11241;SDS011;5678;52.370;9.006;2022-12-18T04:05:57;1.10;;;1.10;;
11241;SDS011;5678;52.370;9.006;2022-12-18T04:08:27;0.90;;;0.90;;
11241;SDS011;5678;52.370;9.006;2022-12-18T04:10:55;1.08;;;1.08;;
11241;SDS011;5678;52.370;9.006;2022-12-18T04:13:27;1.05;;;1.05;;
11241;SDS011;5678;52.370;9.006;2022-12-18T04:15:56;1.10;;;1.10;;
11241;SDS011;5678;52.370;9.006;2022-12-18T04:18:24;1.10;;;1.10;;
11241;SDS011;5678;52.370;9.006;2022-12-18T04:20:53;0.90;;;0.90;;
11241;SDS011;5678;52.370;9.006;2022-12-18T04:23:21;1.20;;;1.20;;
11241;SDS011;5678;52.370;9.006;2022-12-18T04:25:49;1.08;;;1.08;;
11241;SDS011;5678;52.370;9.006;2022-12-18T04:28:17;1.00;;;1.00;;
11241;SDS011;5678;52.370;9.006;2022-12-18T04:30:50;1.52;;;1.52;;
11241;SDS011;5678;52.370;9.006;2022-12-18T04:33:18;1.35;;;1.35;;
11241;SDS011;5678;52.370;9.006;2022-12-18T04:35:46;1.20;;;1.20;;
11241;SDS011;5678;52.370;9.006;2022-12-18T04:38:14;1.13;;;1.13;;
11241;SDS011;5678;52.370;9.006;2022-12-18T04:40:42;1.15;;;1.15;;
11241;SDS011;5678;52.370;9.006;2022-12-18T04:43:10;1.20;;;1.20;;
11241;SDS011;5678;52.370;9.006;2022-12-18T04:45:38;1.05;;;1.05;;
11241;SDS011;5678;52.370;9.006;2022-12-18T04:48:08;1.10;;;1.10;;
11241;SDS011;5678;52.370;9.006;2022-12-18T04:50:36;1.15;;;1.15;;
11241;SDS011;5678;52.370;9.006;2022-12-18T04:53:06;1.00;;;1.00;;
11241;SDS011;5678;52.370;9.006;2022-12-18T04:55:35;1.20;;;1.20;;
11241;SDS011;5678;52.370;9.006;2022-12-18T04:58:03;1.20;;;1.20;;
11241;SDS011;5678;52.370;9.006;2022-12-18T05:00:31;1.10;;;1.10;;
11241;SDS011;5678;52.370;9.006;2022-12-18T05:03:00;1.40;;;1.40;;
11241;SDS011;5678;52.370;9.006;2022-12-18T05:05:30;1.20;;;1.20;;
11241;SDS011;5678;52.370;9.006;2022-12-18T05:07:59;1.20;;;1.20;;
11241;SDS011;5678;52.370;9.006;2022-12-18T05:10:27;1.40;;;1.40;;
11241;SDS011;5678;52.370;9.006;2022-12-18T05:13:03;1.20;;;1.20;;
11241;SDS011;5678;52.370;9.006;2022-12-18T05:15:31;1.05;;;1.05;;
11241;SDS011;5678;52.370;9.006;2022-12-18T05:18:00;1.20;;;1.20;;
11241;SDS011;5678;52.370;9.006;2022-12-18T05:20:30;1.15;;;1.15;;
11241;SDS011;5678;52.370;9.006;2022-12-18T05:22:58;1.20;;;1.20;;
11241;SDS011;5678;52.370;9.006;2022-12-18T05:25:26;1.10;;;1.10;;
11241;SDS011;5678;52.370;9.006;2022-12-18T05:27:55;1.10;;;1.10;;
11241;SDS011;5678;52.370;9.006;2022-12-18T05:30:24;1.02;;;1.02;;
11241;SDS011;5678;52.370;9.006;2022-12-18T05:32:51;1.20;;;1.20;;
11241;SDS011;5678;52.370;9.006;2022-12-18T05:35:20;1.17;;;1.17;;
11241;SDS011;5678;52.370;9.006;2022-12-18T05:37:49;1.08;;;1.08;;
11241;SDS011;5678;52.370;9.006;2022-12-18T05:40:17;1.40;;;1.40;;
11241;SDS011;5678;52.370;9.006;2022-12-18T05:42:45;1.45;;;1.45;;
11241;SDS011;5678;52.370;9.006;2022-12-18T05:45:13;1.20;;;1.20;;
11241;SDS011;5678;52.370;9.006;2022-12-18T05:47:41;1.55;;;1.55;;
11241;SDS011;5678;52.370;9.006;2022-12-18T05:50:09;1.23;;;1.23;;
11241;SDS011;5678;52.370;9.006;2022-12-18T05:52:37;1.00;;;1.00;;
11241;SDS011;5678;52.370;9.006;2022-12-18T05:55:06;1.30;;;1.30;;
11241;SDS011;5678;52.370;9.006;2022-12-18T05:57:34;1.10;;;1.10;;
11241;SDS011;5678;52.370;9.006;2022-12-18T06:00:05;1.20;;;1.20;;
11241;SDS011;5678;52.370;9.006;2022-12-18T06:02:34;1.10;;;1.10;;
11241;SDS011;5678;52.370;9.006;2022-12-18T06:05:02;1.00;;;1.00;;
11241;SDS011;5678;52.370;9.006;2022-12-18T06:07:31;1.10;;;1.10;;
11241;SDS011;5678;52.370;9.006;2022-12-18T06:09:59;1.13;;;1.13;;
11241;SDS011;5678;52.370;9.006;2022-12-18T06:12:28;1.10;;;1.10;;
11241;SDS011;5678;52.370;9.006;2022-12-18T06:14:56;1.10;;;1.10;;
11241;SDS011;5678;52.370;9.006;2022-12-18T06:17:27;1.17;;;1.17;;
11241;SDS011;5678;52.370;9.006;2022-12-18T06:19:55;0.90;;;0.90;;
11241;SDS011;5678;52.370;9.006;2022-12-18T06:22:23;1.20;;;1.20;;
11241;SDS011;5678;52.370;9.006;2022-12-18T06:24:52;1.15;;;1.15;;
11241;SDS011;5678;52.370;9.006;2022-12-18T06:27:20;1.10;;;1.10;;
11241;SDS011;5678;52.370;9.006;2022-12-18T06:29:49;1.33;;;1.33;;
11241;SDS011;5678;52.370;9.006;2022-12-18T06:32:17;1.02;;;1.02;;
11241;SDS011;5678;52.370;9.006;2022-12-18T06:34:45;1.30;;;1.30;;
11241;SDS011;5678;52.370;9.006;2022-12-18T06:37:13;1.20;;;1.20;;
11241;SDS011;5678;52.370;9.006;2022-12-18T06:39:41;1.10;;;1.10;;
11241;SDS011;5678;52.370;9.006;2022-12-18T06:42:09;1.30;;;1.30;;
11241;SDS011;5678;52.370;9.006;2022-12-18T06:44:37;1.08;;;1.08;;
11241;SDS011;5678;52.370;9.006;2022-12-18T06:47:06;1.10;;;1.10;;
11241;SDS011;5678;52.370;9.006;2022-12-18T06:49:34;1.00;;;1.00;;
11241;SDS011;5678;52.370;9.006;2022-12-18T06:52:02;1.20;;;1.20;;
11241;SDS011;5678;52.370;9.006;2022-12-18T06:54:30;1.40;;;1.40;;
11241;SDS011;5678;52.370;9.006;2022-12-18T06:56:58;1.10;;;1.10;;
11241;SDS011;5678;52.370;9.006;2022-12-18T06:59:26;1.30;;;1.30;;
11241;SDS011;5678;52.370;9.006;2022-12-18T07:01:54;1.40;;;1.40;;
11241;SDS011;5678;52.370;9.006;2022-12-18T07:04:28;1.20;;;1.20;;
11241;SDS011;5678;52.370;9.006;2022-12-18T07:06:56;1.40;;;1.40;;
11241;SDS011;5678;52.370;9.006;2022-12-18T07:09:24;1.20;;;1.20;;
11241;SDS011;5678;52.370;9.006;2022-12-18T07:11:54;1.10;;;1.10;;
11241;SDS011;5678;52.370;9.006;2022-12-18T07:14:23;1.40;;;1.40;;
11241;SDS011;5678;52.370;9.006;2022-12-18T07:16:51;1.10;;;1.10;;
11241;SDS011;5678;52.370;9.006;2022-12-18T07:19:19;1.10;;;1.10;;
11241;SDS011;5678;52.370;9.006;2022-12-18T07:21:51;1.55;;;1.55;;
11241;SDS011;5678;52.370;9.006;2022-12-18T07:24:19;1.15;;;1.15;;
11241;SDS011;5678;52.370;9.006;2022-12-18T07:26:47;1.30;;;1.30;;
11241;SDS011;5678;52.370;9.006;2022-12-18T07:29:15;1.25;;;1.25;;
11241;SDS011;5678;52.370;9.006;2022-12-18T07:31:43;1.40;;;1.40;;
11241;SDS011;5678;52.370;9.006;2022-12-18T07:34:11;1.27;;;1.27;;
11241;SDS011;5678;52.370;9.006;2022-12-18T07:36:41;1.35;;;1.35;;
11241;SDS011;5678;52.370;9.006;2022-12-18T07:39:11;1.75;;;1.75;;
11241;SDS011;5678;52.370;9.006;2022-12-18T07:41:39;1.10;;;1.10;;
11241;SDS011;5678;52.370;9.006;2022-12-18T07:44:12;1.30;;;1.30;;
11241;SDS011;5678;52.370;9.006;2022-12-18T07:46:42;1.20;;;1.20;;
11241;SDS011;5678;52.370;9.006;2022-12-18T07:49:10;1.13;;;1.13;;
11241;SDS011;5678;52.370;9.006;2022-12-18T07:51:38;1.05;;;1.05;;
11241;SDS011;5678;52.370;9.006;2022-12-18T07:54:07;1.00;;;1.00;;
11241;SDS011;5678;52.370;9.006;2022-12-18T07:56:36;1.20;;;1.20;;
11241;SDS011;5678;52.370;9.006;2022-12-18T07:59:04;1.08;;;1.08;;
11241;SDS011;5678;52.370;9.006;2022-12-18T08:01:32;1.10;;;1.10;;
11241;SDS011;5678;52.370;9.006;2022-12-18T08:04:01;1.10;;;1.10;;
11241;SDS011;5678;52.370;9.006;2022-12-18T08:06:29;1.20;;;1.20;;
11241;SDS011;5678;52.370;9.006;2022-12-18T08:08:56;1.10;;;1.10;;
11241;SDS011;5678;52.370;9.006;2022-12-18T08:11:25;1.20;;;1.20;;
11241;SDS011;5678;52.370;9.006;2022-12-18T08:13:56;1.50;;;1.50;;
11241;SDS011;5678;52.370;9.006;2022-12-18T08:16:24;1.30;;;1.30;;
11241;SDS011;5678;52.370;9.006;2022-12-18T08:18:53;1.52;;;1.52;;
11241;SDS011;5678;52.370;9.006;2022-12-18T08:21:22;1.38;;;1.38;;
11241;SDS011;5678;52.370;9.006;2022-12-18T08:23:53;1.55;;;1.55;;
11241;SDS011;5678;52.370;9.006;2022-12-18T08:26:22;1.23;;;1.23;;
11241;SDS011;5678;52.370;9.006;2022-12-18T08:28:52;1.25;;;1.25;;
11241;SDS011;5678;52.370;9.006;2022-12-18T08:31:22;1.17;;;1.17;;
11241;SDS011;5678;52.370;9.006;2022-12-18T08:33:52;1.42;;;1.42;;
11241;SDS011;5678;52.370;9.006;2022-12-18T08:36:21;1.30;;;1.30;;
11241;SDS011;5678;52.370;9.006;2022-12-18T08:38:50;1.55;;;1.55;;
11241;SDS011;5678;52.370;9.006;2022-12-18T08:41:19;1.30;;;1.30;;
11241;SDS011;5678;52.370;9.006;2022-12-18T08:43:47;1.20;;;1.20;;
11241;SDS011;5678;52.370;9.006;2022-12-18T08:46:41;1.00;;;1.00;;
11241;SDS011;5678;52.370;9.006;2022-12-18T08:49:11;1.20;;;1.20;;
11241;SDS011;5678;52.370;9.006;2022-12-18T08:51:40;1.25;;;1.25;;
11241;SDS011;5678;52.370;9.006;2022-12-18T08:54:15;1.02;;;1.02;;
11241;SDS011;5678;52.370;9.006;2022-12-18T08:56:43;1.30;;;1.30;;
11241;SDS011;5678;52.370;9.006;2022-12-18T08:59:11;1.33;;;1.33;;
11241;SDS011;5678;52.370;9.006;2022-12-18T09:01:46;1.33;;;1.33;;
11241;SDS011;5678;52.370;9.006;2022-12-18T09:04:15;1.15;;;1.15;;
11241;SDS011;5678;52.370;9.006;2022-12-18T09:06:48;1.48;;;1.48;;
11241;SDS011;5678;52.370;9.006;2022-12-18T09:09:16;1.40;;;1.40;;
11241;SDS011;5678;52.370;9.006;2022-12-18T09:11:44;1.60;;;1.60;;
11241;SDS011;5678;52.370;9.006;2022-12-18T09:14:12;1.20;;;1.20;;
11241;SDS011;5678;52.370;9.006;2022-12-18T09:16:40;1.48;;;1.48;;
11241;SDS011;5678;52.370;9.006;2022-12-18T09:19:10;1.45;;;1.45;;
11241;SDS011;5678;52.370;9.006;2022-12-18T09:21:38;1.20;;;1.20;;
11241;SDS011;5678;52.370;9.006;2022-12-18T09:24:13;1.43;;;1.43;;
11241;SDS011;5678;52.370;9.006;2022-12-18T09:26:41;1.43;;;1.43;;
11241;SDS011;5678;52.370;9.006;2022-12-18T09:29:12;1.40;;;1.40;;
11241;SDS011;5678;52.370;9.006;2022-12-18T09:31:41;1.03;;;1.03;;
11241;SDS011;5678;52.370;9.006;2022-12-18T09:34:11;1.40;;;1.40;;
11241;SDS011;5678;52.370;9.006;2022-12-18T09:36:39;1.23;;;1.23;;
11241;SDS011;5678;52.370;9.006;2022-12-18T09:39:08;1.57;;;1.57;;
11241;SDS011;5678;52.370;9.006;2022-12-18T09:41:39;1.50;;;1.50;;
11241;SDS011;5678;52.370;9.006;2022-12-18T09:44:14;1.63;;;1.63;;
11241;SDS011;5678;52.370;9.006;2022-12-18T09:46:51;1.13;;;1.13;;
11241;SDS011;5678;52.370;9.006;2022-12-18T09:49:26;1.40;;;1.40;;
11241;SDS011;5678;52.370;9.006;2022-12-18T09:51:57;1.10;;;1.10;;
11241;SDS011;5678;52.370;9.006;2022-12-18T09:54:32;0.90;;;0.90;;
11241;SDS011;5678;52.370;9.006;2022-12-18T09:57:02;1.17;;;1.17;;
11241;SDS011;5678;52.370;9.006;2022-12-18T09:59:32;1.30;;;1.30;;
11241;SDS011;5678;52.370;9.006;2022-12-18T10:02:11;0.80;;;0.80;;
11241;SDS011;5678;52.370;9.006;2022-12-18T10:04:44;1.10;;;1.10;;
11241;SDS011;5678;52.370;9.006;2022-12-18T10:07:21;1.17;;;1.17;;
11241;SDS011;5678;52.370;9.006;2022-12-18T10:09:58;0.67;;;0.67;;
11241;SDS011;5678;52.370;9.006;2022-12-18T10:12:36;1.00;;;1.00;;
11241;SDS011;5678;52.370;9.006;2022-12-18T10:15:10;1.10;;;1.10;;
11241;SDS011;5678;52.370;9.006;2022-12-18T10:17:44;1.00;;;1.00;;
11241;SDS011;5678;52.370;9.006;2022-12-18T10:20:19;0.87;;;0.87;;
11241;SDS011;5678;52.370;9.006;2022-12-18T10:22:55;1.07;;;1.07;;
11241;SDS011;5678;52.370;9.006;2022-12-18T10:25:28;0.70;;;0.70;;
11241;SDS011;5678;52.370;9.006;2022-12-18T10:28:07;0.80;;;0.80;;
11241;SDS011;5678;52.370;9.006;2022-12-18T10:30:38;0.90;;;0.90;;
11241;SDS011;5678;52.370;9.006;2022-12-18T10:33:08;0.87;;;0.87;;
11241;SDS011;5678;52.370;9.006;2022-12-18T10:35:43;0.77;;;0.77;;
11241;SDS011;5678;52.370;9.006;2022-12-18T10:41:00;0.53;;;0.53;;
11241;SDS011;5678;52.370;9.006;2022-12-18T10:43:30;0.60;;;0.60;;
11241;SDS011;5678;52.370;9.006;2022-12-18T10:46:00;0.90;;;0.90;;
11241;SDS011;5678;52.370;9.006;2022-12-18T10:48:39;0.60;;;0.60;;
11241;SDS011;5678;52.370;9.006;2022-12-18T10:51:20;0.87;;;0.87;;
11241;SDS011;5678;52.370;9.006;2022-12-18T10:53:54;0.73;;;0.73;;
11241;SDS011;5678;52.370;9.006;2022-12-18T10:56:24;0.70;;;0.70;;
11241;SDS011;5678;52.370;9.006;2022-12-18T10:58:58;0.60;;;0.60;;
11241;SDS011;5678;52.370;9.006;2022-12-18T11:01:33;0.60;;;0.60;;
11241;SDS011;5678;52.370;9.006;2022-12-18T11:04:16;0.50;;;0.50;;
11241;SDS011;5678;52.370;9.006;2022-12-18T11:06:53;0.70;;;0.70;;
11241;SDS011;5678;52.370;9.006;2022-12-18T11:09:24;0.60;;;0.60;;
11241;SDS011;5678;52.370;9.006;2022-12-18T11:11:54;0.37;;;0.37;;
11241;SDS011;5678;52.370;9.006;2022-12-18T11:14:24;0.50;;;0.50;;
11241;SDS011;5678;52.370;9.006;2022-12-18T11:16:54;0.40;;;0.40;;
11241;SDS011;5678;52.370;9.006;2022-12-18T11:19:43;0.60;;;0.60;;
11241;SDS011;5678;52.370;9.006;2022-12-18T11:22:19;0.60;;;0.60;;
11241;SDS011;5678;52.370;9.006;2022-12-18T11:24:53;0.63;;;0.63;;
11241;SDS011;5678;52.370;9.006;2022-12-18T11:27:46;0.47;;;0.47;;
11241;SDS011;5678;52.370;9.006;2022-12-18T11:30:20;0.87;;;0.87;;
11241;SDS011;5678;52.370;9.006;2022-12-18T11:32:50;0.60;;;0.60;;
11241;SDS011;5678;52.370;9.006;2022-12-18T11:35:24;0.97;;;0.97;;
11241;SDS011;5678;52.370;9.006;2022-12-18T11:38:02;0.80;;;0.80;;
11241;SDS011;5678;52.370;9.006;2022-12-18T11:40:40;0.80;;;0.80;;
11241;SDS011;5678;52.370;9.006;2022-12-18T11:43:13;0.70;;;0.70;;
11241;SDS011;5678;52.370;9.006;2022-12-18T11:45:47;0.50;;;0.50;;
11241;SDS011;5678;52.370;9.006;2022-12-18T11:48:21;0.40;;;0.40;;
11241;SDS011;5678;52.370;9.006;2022-12-18T11:50:53;0.40;;;0.40;;
11241;SDS011;5678;52.370;9.006;2022-12-18T11:53:24;0.50;;;0.50;;
11241;SDS011;5678;52.370;9.006;2022-12-18T11:55:56;0.53;;;0.53;;
11241;SDS011;5678;52.370;9.006;2022-12-18T11:58:40;0.67;;;0.67;;
11241;SDS011;5678;52.370;9.006;2022-12-18T12:01:15;0.30;;;0.30;;
11241;SDS011;5678;52.370;9.006;2022-12-18T12:06:44;0.60;;;0.60;;
11241;SDS011;5678;52.370;9.006;2022-12-18T12:09:30;0.43;;;0.43;;
11241;SDS011;5678;52.370;9.006;2022-12-18T12:12:08;0.60;;;0.60;;
11241;SDS011;5678;52.370;9.006;2022-12-18T12:14:47;0.43;;;0.43;;
11241;SDS011;5678;52.370;9.006;2022-12-18T12:17:27;0.60;;;0.60;;
11241;SDS011;5678;52.370;9.006;2022-12-18T12:20:02;0.43;;;0.43;;
11241;SDS011;5678;52.370;9.006;2022-12-18T12:22:39;0.40;;;0.40;;
11241;SDS011;5678;52.370;9.006;2022-12-18T12:25:21;0.50;;;0.50;;
11241;SDS011;5678;52.370;9.006;2022-12-18T12:28:00;0.57;;;0.57;;
11241;SDS011;5678;52.370;9.006;2022-12-18T12:30:40;0.60;;;0.60;;
11241;SDS011;5678;52.370;9.006;2022-12-18T12:33:22;0.50;;;0.50;;
11241;SDS011;5678;52.370;9.006;2022-12-18T12:36:03;0.50;;;0.50;;
11241;SDS011;5678;52.370;9.006;2022-12-18T12:38:40;0.60;;;0.60;;
11241;SDS011;5678;52.370;9.006;2022-12-18T12:41:19;0.50;;;0.50;;
11241;SDS011;5678;52.370;9.006;2022-12-18T12:44:07;0.60;;;0.60;;
11241;SDS011;5678;52.370;9.006;2022-12-18T12:46:41;0.60;;;0.60;;
11241;SDS011;5678;52.370;9.006;2022-12-18T12:49:12;0.60;;;0.60;;
11241;SDS011;5678;52.370;9.006;2022-12-18T12:51:43;0.60;;;0.60;;
11241;SDS011;5678;52.370;9.006;2022-12-18T12:54:15;0.57;;;0.57;;
11241;SDS011;5678;52.370;9.006;2022-12-18T12:56:49;0.60;;;0.60;;
11241;SDS011;5678;52.370;9.006;2022-12-18T12:59:25;0.70;;;0.70;;
11241;SDS011;5678;52.370;9.006;2022-12-18T13:02:03;0.67;;;0.67;;
11241;SDS011;5678;52.370;9.006;2022-12-18T13:04:39;0.50;;;0.50;;
11241;SDS011;5678;52.370;9.006;2022-12-18T13:07:15;0.50;;;0.50;;
11241;SDS011;5678;52.370;9.006;2022-12-18T13:12:54;0.50;;;0.50;;
11241;SDS011;5678;52.370;9.006;2022-12-18T13:15:24;0.60;;;0.60;;
11241;SDS011;5678;52.370;9.006;2022-12-18T13:18:04;0.53;;;0.53;;
11241;SDS011;5678;52.370;9.006;2022-12-18T13:20:44;0.30;;;0.30;;
11241;SDS011;5678;52.370;9.006;2022-12-18T13:23:27;0.77;;;0.77;;
11241;SDS011;5678;52.370;9.006;2022-12-18T13:25:59;0.67;;;0.67;;
11241;SDS011;5678;52.370;9.006;2022-12-18T13:28:55;0.70;;;0.70;;
11241;SDS011;5678;52.370;9.006;2022-12-18T13:34:26;0.33;;;0.33;;
11241;SDS011;5678;52.370;9.006;2022-12-18T13:37:34;0.60;;;0.60;;
11241;SDS011;5678;52.370;9.006;2022-12-18T13:43:39;0.63;;;0.63;;
11241;SDS011;5678;52.370;9.006;2022-12-18T13:46:19;0.80;;;0.80;;
11241;SDS011;5678;52.370;9.006;2022-12-18T13:48:50;0.93;;;0.93;;
11241;SDS011;5678;52.370;9.006;2022-12-18T13:51:22;0.67;;;0.67;;
11241;SDS011;5678;52.370;9.006;2022-12-18T13:53:52;0.60;;;0.60;;
11241;SDS011;5678;52.370;9.006;2022-12-18T13:56:23;0.70;;;0.70;;
11241;SDS011;5678;52.370;9.006;2022-12-18T14:01:46;0.57;;;0.57;;
11241;SDS011;5678;52.370;9.006;2022-12-18T14:04:27;0.40;;;0.40;;
11241;SDS011;5678;52.370;9.006;2022-12-18T14:06:58;0.60;;;0.60;;
11241;SDS011;5678;52.370;9.006;2022-12-18T14:09:34;0.50;;;0.50;;
11241;SDS011;5678;52.370;9.006;2022-12-18T14:12:04;0.83;;;0.83;;
11241;SDS011;5678;52.370;9.006;2022-12-18T14:14:51;0.70;;;0.70;;
11241;SDS011;5678;52.370;9.006;2022-12-18T14:17:22;0.40;;;0.40;;
11241;SDS011;5678;52.370;9.006;2022-12-18T14:19:51;0.40;;;0.40;;
11241;SDS011;5678;52.370;9.006;2022-12-18T14:22:20;0.50;;;0.50;;
11241;SDS011;5678;52.370;9.006;2022-12-18T14:25:05;0.60;;;0.60;;
11241;SDS011;5678;52.370;9.006;2022-12-18T14:27:42;0.77;;;0.77;;
11241;SDS011;5678;52.370;9.006;2022-12-18T14:30:22;0.70;;;0.70;;
11241;SDS011;5678;52.370;9.006;2022-12-18T14:33:03;0.50;;;0.50;;
11241;SDS011;5678;52.370;9.006;2022-12-18T14:35:31;0.60;;;0.60;;
11241;SDS011;5678;52.370;9.006;2022-12-18T14:38:22;0.67;;;0.67;;
11241;SDS011;5678;52.370;9.006;2022-12-18T14:40:53;0.43;;;0.43;;
11241;SDS011;5678;52.370;9.006;2022-12-18T14:43:26;0.50;;;0.50;;
11241;SDS011;5678;52.370;9.006;2022-12-18T14:45:55;0.40;;;0.40;;
11241;SDS011;5678;52.370;9.006;2022-12-18T14:48:30;0.50;;;0.50;;
11241;SDS011;5678;52.370;9.006;2022-12-18T14:51:03;0.47;;;0.47;;
11241;SDS011;5678;52.370;9.006;2022-12-18T14:53:34;1.10;;;1.10;;
11241;SDS011;5678;52.370;9.006;2022-12-18T14:56:15;0.90;;;0.90;;
11241;SDS011;5678;52.370;9.006;2022-12-18T14:58:48;0.57;;;0.57;;
11241;SDS011;5678;52.370;9.006;2022-12-18T15:01:21;0.90;;;0.90;;
11241;SDS011;5678;52.370;9.006;2022-12-18T15:03:53;0.70;;;0.70;;
11241;SDS011;5678;52.370;9.006;2022-12-18T15:06:24;0.87;;;0.87;;
11241;SDS011;5678;52.370;9.006;2022-12-18T15:08:59;0.67;;;0.67;;
11241;SDS011;5678;52.370;9.006;2022-12-18T15:11:30;0.97;;;0.97;;
11241;SDS011;5678;52.370;9.006;2022-12-18T15:16:50;1.17;;;1.17;;
11241;SDS011;5678;52.370;9.006;2022-12-18T15:19:21;0.63;;;0.63;;
11241;SDS011;5678;52.370;9.006;2022-12-18T15:21:53;0.50;;;0.50;;
11241;SDS011;5678;52.370;9.006;2022-12-18T15:24:31;0.57;;;0.57;;
11241;SDS011;5678;52.370;9.006;2022-12-18T15:27:00;0.70;;;0.70;;
11241;SDS011;5678;52.370;9.006;2022-12-18T15:29:28;0.70;;;0.70;;
11241;SDS011;5678;52.370;9.006;2022-12-18T15:32:03;0.90;;;0.90;;
11241;SDS011;5678;52.370;9.006;2022-12-18T15:34:34;1.20;;;1.20;;
11241;SDS011;5678;52.370;9.006;2022-12-18T15:37:02;0.90;;;0.90;;
11241;SDS011;5678;52.370;9.006;2022-12-18T15:39:30;0.90;;;0.90;;
11241;SDS011;5678;52.370;9.006;2022-12-18T15:41:58;0.60;;;0.60;;
11241;SDS011;5678;52.370;9.006;2022-12-18T15:44:45;0.60;;;0.60;;
11241;SDS011;5678;52.370;9.006;2022-12-18T15:47:13;0.70;;;0.70;;
11241;SDS011;5678;52.370;9.006;2022-12-18T15:49:42;0.73;;;0.73;;
11241;SDS011;5678;52.370;9.006;2022-12-18T15:52:10;0.77;;;0.77;;
11241;SDS011;5678;52.370;9.006;2022-12-18T15:54:51;0.90;;;0.90;;
11241;SDS011;5678;52.370;9.006;2022-12-18T15:57:51;0.73;;;0.73;;